<?xml version='1.0' encoding='UTF-8'?><gpx version="1.1" creator="JPX - https://github.com/jenetics/jpx" xmlns="http://www.topografix.com/GPX/1/1"><trk><trkseg><trkpt lat="45.7596493" lon="8.968078"><ele>385.0</ele><time>2026-04-10T14:11:01.157Z</time></trkpt><trkpt lat="45.7597036" lon="8.9681282"><ele>385.0</ele><time>2026-04-10T14:11:09.177Z</time></trkpt><trkpt lat="45.7597513" lon="8.9682097"><ele>385.0</ele><time>2026-04-10T14:11:14.129Z</time></trkpt><trkpt lat="45.759775" lon="8.9682981"><ele>385.0</ele><time>2026-04-10T14:11:19.145Z</time></trkpt><trkpt lat="45.7597997" lon="8.9683847"><ele>385.0</ele><time>2026-04-10T14:11:25.196Z</time></trkpt><trkpt lat="45.7598123" lon="8.9684854"><ele>385.0</ele><time>2026-04-10T14:11:32.204Z</time></trkpt><trkpt lat="45.7598224" lon="8.9685805"><ele>385.0</ele><time>2026-04-10T14:11:38.161Z</time></trkpt><trkpt lat="45.7598372" lon="8.9686699"><ele>384.57142857142856</ele><time>2026-04-10T14:11:43.202Z</time></trkpt><trkpt lat="45.7598647" lon="8.9687709"><ele>384.1428571428571</ele><time>2026-04-10T14:11:49.226Z</time></trkpt><trkpt lat="45.7598902" lon="8.9688623"><ele>383.7142857142857</ele><time>2026-04-10T14:11:55.116Z</time></trkpt><trkpt lat="45.7599279" lon="8.9689605"><ele>383.2857142857143</ele><time>2026-04-10T14:11:59.149Z</time></trkpt><trkpt lat="45.7599557" lon="8.9690706"><ele>382.85714285714283</ele><time>2026-04-10T14:12:02.129Z</time></trkpt><trkpt lat="45.7599754" lon="8.9691624"><ele>382.42857142857144</ele><time>2026-04-10T14:12:05.196Z</time></trkpt><trkpt lat="45.7599706" lon="8.9692668"><ele>382.0</ele><time>2026-04-10T14:12:09.16Z</time></trkpt><trkpt lat="45.7599077" lon="8.9693223"><ele>381.7142857142857</ele><time>2026-04-10T14:12:14.137Z</time></trkpt><trkpt lat="45.759837" lon="8.9693398"><ele>381.4285714285714</ele><time>2026-04-10T14:12:18.141Z</time></trkpt><trkpt lat="45.7597726" lon="8.9693029"><ele>381.1428571428571</ele><time>2026-04-10T14:12:23.129Z</time></trkpt><trkpt lat="45.7596951" lon="8.9693138"><ele>380.8571428571429</ele><time>2026-04-10T14:12:30.258Z</time></trkpt><trkpt lat="45.7596298" lon="8.9693557"><ele>380.57142857142856</ele><time>2026-04-10T14:12:34.483Z</time></trkpt><trkpt lat="45.7595522" lon="8.9693991"><ele>380.2857142857143</ele><time>2026-04-10T14:12:38.87Z</time></trkpt><trkpt lat="45.7594912" lon="8.9694417"><ele>380.0</ele><time>2026-04-10T14:12:43.042Z</time></trkpt><trkpt lat="45.7594094" lon="8.9694435"><ele>379.25</ele><time>2026-04-10T14:12:46.131Z</time></trkpt><trkpt lat="45.7593199" lon="8.9696569"><ele>378.5</ele><time>2026-04-10T14:12:58.13Z</time></trkpt><trkpt lat="45.7592493" lon="8.9698144"><ele>377.75</ele><time>2026-04-10T14:13:03.145Z</time></trkpt><trkpt lat="45.7592584" lon="8.9699176"><ele>377.0</ele><time>2026-04-10T14:13:07.256Z</time></trkpt><trkpt lat="45.7592616" lon="8.9700343"><ele>376.33333333333337</ele><time>2026-04-10T14:13:11.14Z</time></trkpt><trkpt lat="45.7592957" lon="8.9701127"><ele>375.6666666666667</ele><time>2026-04-10T14:13:14.244Z</time></trkpt><trkpt lat="45.7593316" lon="8.9701935"><ele>375.0</ele><time>2026-04-10T14:13:21.243Z</time></trkpt><trkpt lat="45.7593917" lon="8.9702345"><ele>374.3333333333333</ele><time>2026-04-10T14:13:29.166Z</time></trkpt><trkpt lat="45.7594543" lon="8.9702548"><ele>373.66666666666663</ele><time>2026-04-10T14:13:36.263Z</time></trkpt><trkpt lat="45.7595204" lon="8.9702883"><ele>373.0</ele><time>2026-04-10T14:13:44.221Z</time></trkpt><trkpt lat="45.7596957" lon="8.9701523"><ele>372.8571428571429</ele><time>2026-04-10T14:13:49.396Z</time></trkpt><trkpt lat="45.759766" lon="8.9701189"><ele>372.7142857142857</ele><time>2026-04-10T14:13:53.577Z</time></trkpt><trkpt lat="45.7598312" lon="8.9700879"><ele>372.57142857142856</ele><time>2026-04-10T14:13:56.699Z</time></trkpt><trkpt lat="45.7599014" lon="8.9700585"><ele>372.42857142857144</ele><time>2026-04-10T14:14:01.134Z</time></trkpt><trkpt lat="45.7599815" lon="8.9700412"><ele>372.2857142857143</ele><time>2026-04-10T14:14:05.136Z</time></trkpt><trkpt lat="45.7600468" lon="8.9700222"><ele>372.14285714285717</ele><time>2026-04-10T14:14:08.213Z</time></trkpt><trkpt lat="45.7601289" lon="8.9700378"><ele>372.0</ele><time>2026-04-10T14:14:11.131Z</time></trkpt><trkpt lat="45.760202" lon="8.9700211"><ele>373.8333333333333</ele><time>2026-04-10T14:14:15.252Z</time></trkpt><trkpt lat="45.7602829" lon="8.969977"><ele>375.6666666666667</ele><time>2026-04-10T14:14:18.475Z</time></trkpt><trkpt lat="45.7603685" lon="8.9699243"><ele>377.5</ele><time>2026-04-10T14:14:21.716Z</time></trkpt><trkpt lat="45.7604478" lon="8.969876"><ele>379.33333333333337</ele><time>2026-04-10T14:14:24.944Z</time></trkpt><trkpt lat="45.760513" lon="8.9698297"><ele>381.1666666666667</ele><time>2026-04-10T14:14:28.127Z</time></trkpt><trkpt lat="45.7605934" lon="8.9697932"><ele>383.0</ele><time>2026-04-10T14:14:32.164Z</time></trkpt><trkpt lat="45.7606583" lon="8.9697633"><ele>383.0</ele><time>2026-04-10T14:14:35.149Z</time></trkpt><trkpt lat="45.7607201" lon="8.9697364"><ele>383.0</ele><time>2026-04-10T14:14:38.132Z</time></trkpt><trkpt lat="45.7607828" lon="8.9697047"><ele>383.0</ele><time>2026-04-10T14:14:41.119Z</time></trkpt><trkpt lat="45.7608516" lon="8.9696681"><ele>383.0</ele><time>2026-04-10T14:14:45.203Z</time></trkpt><trkpt lat="45.7609226" lon="8.9696619"><ele>383.0</ele><time>2026-04-10T14:14:48.13Z</time></trkpt><trkpt lat="45.7610128" lon="8.9696527"><ele>383.0</ele><time>2026-04-10T14:14:52.269Z</time></trkpt><trkpt lat="45.7610833" lon="8.9696495"><ele>383.0</ele><time>2026-04-10T14:14:55.611Z</time></trkpt><trkpt lat="45.7611647" lon="8.96962"><ele>383.2</ele><time>2026-04-10T14:14:59.225Z</time></trkpt><trkpt lat="45.7612351" lon="8.969615"><ele>383.4</ele><time>2026-04-10T14:15:02.21Z</time></trkpt><trkpt lat="45.7613182" lon="8.9696105"><ele>383.59999999999997</ele><time>2026-04-10T14:15:05.224Z</time></trkpt><trkpt lat="45.7613821" lon="8.9696009"><ele>383.79999999999995</ele><time>2026-04-10T14:15:07.225Z</time></trkpt><trkpt lat="45.7614692" lon="8.9695799"><ele>384.0</ele><time>2026-04-10T14:15:10.204Z</time></trkpt><trkpt lat="45.7616329" lon="8.9695672"><ele>384.0</ele><time>2026-04-10T14:15:13.182Z</time></trkpt><trkpt lat="45.7617096" lon="8.9695832"><ele>384.0</ele><time>2026-04-10T14:15:15.083Z</time></trkpt><trkpt lat="45.7617864" lon="8.9695741"><ele>384.0</ele><time>2026-04-10T14:15:18.222Z</time></trkpt><trkpt lat="45.7618771" lon="8.9696771"><ele>384.0</ele><time>2026-04-10T14:15:20.183Z</time></trkpt><trkpt lat="45.7619338" lon="8.9697386"><ele>384.0</ele><time>2026-04-10T14:15:23.436Z</time></trkpt><trkpt lat="45.762004" lon="8.9697431"><ele>384.0</ele><time>2026-04-10T14:15:27.025Z</time></trkpt><trkpt lat="45.762066" lon="8.9697007"><ele>384.71428571428567</ele><time>2026-04-10T14:15:31.208Z</time></trkpt><trkpt lat="45.7621309" lon="8.9696636"><ele>385.42857142857144</ele><time>2026-04-10T14:15:34.825Z</time></trkpt><trkpt lat="45.7622088" lon="8.9696307"><ele>386.1428571428571</ele><time>2026-04-10T14:15:40.078Z</time></trkpt><trkpt lat="45.762266" lon="8.9695788"><ele>386.85714285714283</ele><time>2026-04-10T14:15:44.242Z</time></trkpt><trkpt lat="45.7623381" lon="8.9695363"><ele>387.57142857142856</ele><time>2026-04-10T14:15:49.162Z</time></trkpt><trkpt lat="45.762405" lon="8.9695048"><ele>388.2857142857143</ele><time>2026-04-10T14:15:53.043Z</time></trkpt><trkpt lat="45.7624694" lon="8.9694677"><ele>389.0</ele><time>2026-04-10T14:16:01.122Z</time></trkpt><trkpt lat="45.762533" lon="8.9694291"><ele>388.99999999999994</ele><time>2026-04-10T14:16:08.168Z</time></trkpt><trkpt lat="45.7625955" lon="8.9694142"><ele>389.0</ele><time>2026-04-10T14:16:13.147Z</time></trkpt><trkpt lat="45.7626714" lon="8.9693904"><ele>389.0</ele><time>2026-04-10T14:16:17.215Z</time></trkpt><trkpt lat="45.7627354" lon="8.969371"><ele>389.0</ele><time>2026-04-10T14:16:19.134Z</time></trkpt><trkpt lat="45.7628079" lon="8.9693662"><ele>388.99999999999994</ele><time>2026-04-10T14:16:23.175Z</time></trkpt><trkpt lat="45.762964" lon="8.969279"><ele>389.0</ele><time>2026-04-10T14:16:32.129Z</time></trkpt><trkpt lat="45.7630266" lon="8.96924"><ele>389.79999999999995</ele><time>2026-04-10T14:16:38.057Z</time></trkpt><trkpt lat="45.7631694" lon="8.9691551"><ele>390.59999999999997</ele><time>2026-04-10T14:16:44.065Z</time></trkpt><trkpt lat="45.7632061" lon="8.9690802"><ele>391.4</ele><time>2026-04-10T14:16:50.129Z</time></trkpt><trkpt lat="45.7633369" lon="8.9690184"><ele>392.2</ele><time>2026-04-10T14:16:52.155Z</time></trkpt><trkpt lat="45.7634087" lon="8.9689597"><ele>393.0</ele><time>2026-04-10T14:16:55.098Z</time></trkpt><trkpt lat="45.7634697" lon="8.9688905"><ele>393.0</ele><time>2026-04-10T14:16:59.147Z</time></trkpt><trkpt lat="45.7635211" lon="8.9688362"><ele>393.0</ele><time>2026-04-10T14:17:06.125Z</time></trkpt><trkpt lat="45.763547" lon="8.9687517"><ele>393.0</ele><time>2026-04-10T14:17:11.087Z</time></trkpt><trkpt lat="45.7636718" lon="8.9686144"><ele>393.0</ele><time>2026-04-10T14:17:19.194Z</time></trkpt><trkpt lat="45.7637242" lon="8.9685441"><ele>393.0</ele><time>2026-04-10T14:17:23.128Z</time></trkpt><trkpt lat="45.7637912" lon="8.9684648"><ele>393.0</ele><time>2026-04-10T14:17:30.128Z</time></trkpt><trkpt lat="45.7638531" lon="8.9683912"><ele>393.1666666666667</ele><time>2026-04-10T14:17:32.157Z</time></trkpt><trkpt lat="45.7639129" lon="8.9683359"><ele>393.33333333333337</ele><time>2026-04-10T14:17:36.139Z</time></trkpt><trkpt lat="45.7639689" lon="8.968292"><ele>393.5</ele><time>2026-04-10T14:17:41.173Z</time></trkpt><trkpt lat="45.7640711" lon="8.9683017"><ele>393.6666666666667</ele><time>2026-04-10T14:17:42.213Z</time></trkpt><trkpt lat="45.7641407" lon="8.9682971"><ele>393.83333333333337</ele><time>2026-04-10T14:17:45.199Z</time></trkpt><trkpt lat="45.7642063" lon="8.9683064"><ele>394.0</ele><time>2026-04-10T14:17:49.102Z</time></trkpt><trkpt lat="45.7642907" lon="8.9683247"><ele>394.00000000000006</ele><time>2026-04-10T14:17:52.13Z</time></trkpt><trkpt lat="45.7643683" lon="8.9683433"><ele>394.0</ele><time>2026-04-10T14:17:55.166Z</time></trkpt><trkpt lat="45.7644651" lon="8.9683864"><ele>394.0</ele><time>2026-04-10T14:17:58.452Z</time></trkpt><trkpt lat="45.764537" lon="8.9684166"><ele>394.0</ele><time>2026-04-10T14:18:01.683Z</time></trkpt><trkpt lat="45.7646045" lon="8.9684737"><ele>394.00000000000006</ele><time>2026-04-10T14:18:06.145Z</time></trkpt><trkpt lat="45.7646545" lon="8.9685404"><ele>394.0</ele><time>2026-04-10T14:18:11.163Z</time></trkpt><trkpt lat="45.7646979" lon="8.9686096"><ele>395.1666666666667</ele><time>2026-04-10T14:18:16.13Z</time></trkpt><trkpt lat="45.7647494" lon="8.9686823"><ele>396.33333333333337</ele><time>2026-04-10T14:18:20.204Z</time></trkpt><trkpt lat="45.7648052" lon="8.968763"><ele>397.5</ele><time>2026-04-10T14:18:24.484Z</time></trkpt><trkpt lat="45.764864" lon="8.9688502"><ele>398.66666666666663</ele><time>2026-04-10T14:18:27.656Z</time></trkpt><trkpt lat="45.7649189" lon="8.9689238"><ele>399.8333333333333</ele><time>2026-04-10T14:18:30.824Z</time></trkpt><trkpt lat="45.7649754" lon="8.9690147"><ele>401.0</ele><time>2026-04-10T14:18:35.154Z</time></trkpt><trkpt lat="45.7651123" lon="8.9690728"><ele>401.0</ele><time>2026-04-10T14:18:39.102Z</time></trkpt><trkpt lat="45.7651838" lon="8.9691222"><ele>401.0</ele><time>2026-04-10T14:18:42.365Z</time></trkpt><trkpt lat="45.765242" lon="8.9691918"><ele>401.0</ele><time>2026-04-10T14:18:45.542Z</time></trkpt><trkpt lat="45.7652938" lon="8.9692433"><ele>401.0</ele><time>2026-04-10T14:18:49.783Z</time></trkpt><trkpt lat="45.7653483" lon="8.9692949"><ele>401.0</ele><time>2026-04-10T14:18:56.206Z</time></trkpt><trkpt lat="45.7653967" lon="8.9693591"><ele>401.0</ele><time>2026-04-10T14:19:02.185Z</time></trkpt><trkpt lat="45.7654253" lon="8.9694468"><ele>401.0</ele><time>2026-04-10T14:19:08.083Z</time></trkpt><trkpt lat="45.76546" lon="8.969539"><ele>402.14285714285717</ele><time>2026-04-10T14:19:13.131Z</time></trkpt><trkpt lat="45.7654785" lon="8.9696425"><ele>403.28571428571433</ele><time>2026-04-10T14:19:18.131Z</time></trkpt><trkpt lat="45.7654824" lon="8.9697405"><ele>404.42857142857144</ele><time>2026-04-10T14:19:22.143Z</time></trkpt><trkpt lat="45.7655294" lon="8.9698209"><ele>405.57142857142856</ele><time>2026-04-10T14:19:28.06Z</time></trkpt><trkpt lat="45.7655693" lon="8.9699017"><ele>406.7142857142857</ele><time>2026-04-10T14:19:32.131Z</time></trkpt><trkpt lat="45.7656074" lon="8.9699744"><ele>407.85714285714283</ele><time>2026-04-10T14:19:35.082Z</time></trkpt><trkpt lat="45.7656447" lon="8.9700477"><ele>409.0</ele><time>2026-04-10T14:19:37.228Z</time></trkpt><trkpt lat="45.7656859" lon="8.9701176"><ele>409.1666666666667</ele><time>2026-04-10T14:19:40.219Z</time></trkpt><trkpt lat="45.7657409" lon="8.9701979"><ele>409.33333333333337</ele><time>2026-04-10T14:19:43.143Z</time></trkpt><trkpt lat="45.7658126" lon="8.9702706"><ele>409.5</ele><time>2026-04-10T14:19:46.176Z</time></trkpt><trkpt lat="45.765873" lon="8.9703414"><ele>409.66666666666663</ele><time>2026-04-10T14:19:49.156Z</time></trkpt><trkpt lat="45.7659176" lon="8.9704155"><ele>409.8333333333333</ele><time>2026-04-10T14:19:52.134Z</time></trkpt><trkpt lat="45.7659604" lon="8.9705083"><ele>410.0</ele><time>2026-04-10T14:19:55.228Z</time></trkpt><trkpt lat="45.7660036" lon="8.9705924"><ele>409.6</ele><time>2026-04-10T14:19:58.131Z</time></trkpt><trkpt lat="45.7660425" lon="8.9707922"><ele>409.2</ele><time>2026-04-10T14:20:01.148Z</time></trkpt><trkpt lat="45.7660717" lon="8.9709059"><ele>408.79999999999995</ele><time>2026-04-10T14:20:03.229Z</time></trkpt><trkpt lat="45.766118" lon="8.9710125"><ele>408.4</ele><time>2026-04-10T14:20:06.122Z</time></trkpt><trkpt lat="45.7661558" lon="8.9711076"><ele>408.0</ele><time>2026-04-10T14:20:09.13Z</time></trkpt><trkpt lat="45.7661941" lon="8.9711875"><ele>408.0</ele><time>2026-04-10T14:20:12.224Z</time></trkpt><trkpt lat="45.7662503" lon="8.9712646"><ele>408.0</ele><time>2026-04-10T14:20:16.529Z</time></trkpt><trkpt lat="45.7663279" lon="8.9713077"><ele>408.0</ele><time>2026-04-10T14:20:20.942Z</time></trkpt><trkpt lat="45.7663873" lon="8.9713638"><ele>408.0</ele><time>2026-04-10T14:20:24.246Z</time></trkpt><trkpt lat="45.7664758" lon="8.9713856"><ele>408.0</ele><time>2026-04-10T14:20:28.724Z</time></trkpt><trkpt lat="45.7665416" lon="8.9714033"><ele>408.0</ele><time>2026-04-10T14:20:32.067Z</time></trkpt><trkpt lat="45.7666184" lon="8.9713888"><ele>408.0</ele><time>2026-04-10T14:20:35.209Z</time></trkpt><trkpt lat="45.7666955" lon="8.9713821"><ele>408.0</ele><time>2026-04-10T14:20:38.188Z</time></trkpt><trkpt lat="45.7667732" lon="8.9713784"><ele>408.0</ele><time>2026-04-10T14:20:41.166Z</time></trkpt><trkpt lat="45.7668379" lon="8.9713899"><ele>408.0</ele><time>2026-04-10T14:20:44.145Z</time></trkpt><trkpt lat="45.7669023" lon="8.9713999"><ele>408.0</ele><time>2026-04-10T14:20:48.155Z</time></trkpt><trkpt lat="45.7669782" lon="8.9714157"><ele>408.0</ele><time>2026-04-10T14:20:53.195Z</time></trkpt><trkpt lat="45.7670494" lon="8.971419"><ele>408.0</ele><time>2026-04-10T14:20:57.142Z</time></trkpt><trkpt lat="45.7671391" lon="8.9714139"><ele>406.5</ele><time>2026-04-10T14:21:01.128Z</time></trkpt><trkpt lat="45.7672307" lon="8.9714289"><ele>405.0</ele><time>2026-04-10T14:21:04.163Z</time></trkpt><trkpt lat="45.7673113" lon="8.9714263"><ele>403.5</ele><time>2026-04-10T14:21:07.242Z</time></trkpt><trkpt lat="45.767381" lon="8.9714359"><ele>402.0</ele><time>2026-04-10T14:21:11.025Z</time></trkpt><trkpt lat="45.7674462" lon="8.9714478"><ele>400.5</ele><time>2026-04-10T14:21:15.179Z</time></trkpt><trkpt lat="45.7675096" lon="8.9714296"><ele>399.0</ele><time>2026-04-10T14:21:19.259Z</time></trkpt><trkpt lat="45.7675908" lon="8.971426"><ele>399.0</ele><time>2026-04-10T14:21:23.366Z</time></trkpt><trkpt lat="45.7676665" lon="8.9714204"><ele>399.0</ele><time>2026-04-10T14:21:26.456Z</time></trkpt><trkpt lat="45.7677369" lon="8.9714038"><ele>399.0</ele><time>2026-04-10T14:21:29.582Z</time></trkpt><trkpt lat="45.7678084" lon="8.971398"><ele>399.0</ele><time>2026-04-10T14:21:32.679Z</time></trkpt><trkpt lat="45.7678783" lon="8.9713999"><ele>399.0</ele><time>2026-04-10T14:21:35.804Z</time></trkpt><trkpt lat="45.7679551" lon="8.9713983"><ele>399.0</ele><time>2026-04-10T14:21:39.135Z</time></trkpt><trkpt lat="45.7680403" lon="8.9714118"><ele>398.1666666666667</ele><time>2026-04-10T14:21:43.11Z</time></trkpt><trkpt lat="45.7681316" lon="8.9713823"><ele>397.33333333333337</ele><time>2026-04-10T14:21:46.129Z</time></trkpt><trkpt lat="45.7682092" lon="8.9713635"><ele>396.5</ele><time>2026-04-10T14:21:49.128Z</time></trkpt><trkpt lat="45.7682878" lon="8.9713553"><ele>395.6666666666667</ele><time>2026-04-10T14:21:53.062Z</time></trkpt><trkpt lat="45.7683502" lon="8.9713371"><ele>394.83333333333337</ele><time>2026-04-10T14:21:57.206Z</time></trkpt><trkpt lat="45.7684226" lon="8.9713004"><ele>394.0</ele><time>2026-04-10T14:22:02.042Z</time></trkpt><trkpt lat="45.768497" lon="8.9712788"><ele>393.6666666666667</ele><time>2026-04-10T14:22:05.158Z</time></trkpt><trkpt lat="45.768559" lon="8.97126"><ele>393.33333333333337</ele><time>2026-04-10T14:22:07.304Z</time></trkpt><trkpt lat="45.7686481" lon="8.9712213"><ele>393.0</ele><time>2026-04-10T14:22:10.832Z</time></trkpt><trkpt lat="45.7687185" lon="8.9711834"><ele>392.66666666666663</ele><time>2026-04-10T14:22:12.963Z</time></trkpt><trkpt lat="45.7688042" lon="8.9711594"><ele>392.3333333333333</ele><time>2026-04-10T14:22:16.068Z</time></trkpt><trkpt lat="45.7688675" lon="8.9711241"><ele>392.0</ele><time>2026-04-10T14:22:18.199Z</time></trkpt><trkpt lat="45.7689553" lon="8.9711006"><ele>392.0</ele><time>2026-04-10T14:22:21.129Z</time></trkpt><trkpt lat="45.7690439" lon="8.9710809"><ele>392.0</ele><time>2026-04-10T14:22:24.102Z</time></trkpt><trkpt lat="45.7691143" lon="8.9710255"><ele>392.0</ele><time>2026-04-10T14:22:27.162Z</time></trkpt><trkpt lat="45.7691852" lon="8.9709749"><ele>392.0</ele><time>2026-04-10T14:22:31.146Z</time></trkpt><trkpt lat="45.7692604" lon="8.970947"><ele>392.0</ele><time>2026-04-10T14:22:34.128Z</time></trkpt><trkpt lat="45.7694188" lon="8.9709324"><ele>392.16666666666663</ele><time>2026-04-10T14:22:39.06Z</time></trkpt><trkpt lat="45.7694861" lon="8.9709173"><ele>392.3333333333333</ele><time>2026-04-10T14:22:41.162Z</time></trkpt><trkpt lat="45.7695663" lon="8.9708747"><ele>392.5</ele><time>2026-04-10T14:22:44.208Z</time></trkpt><trkpt lat="45.7696273" lon="8.9708194"><ele>392.66666666666663</ele><time>2026-04-10T14:22:46.228Z</time></trkpt><trkpt lat="45.7696996" lon="8.9707566"><ele>392.8333333333333</ele><time>2026-04-10T14:22:49.302Z</time></trkpt><trkpt lat="45.7697715" lon="8.9706999"><ele>393.0</ele><time>2026-04-10T14:22:52.323Z</time></trkpt><trkpt lat="45.7698391" lon="8.9706247"><ele>393.1666666666667</ele><time>2026-04-10T14:22:55.77Z</time></trkpt><trkpt lat="45.7699095" lon="8.9705505"><ele>393.33333333333337</ele><time>2026-04-10T14:23:00.227Z</time></trkpt><trkpt lat="45.769972" lon="8.9704801"><ele>393.5</ele><time>2026-04-10T14:23:04.045Z</time></trkpt><trkpt lat="45.7700313" lon="8.9704288"><ele>393.6666666666667</ele><time>2026-04-10T14:23:06.131Z</time></trkpt><trkpt lat="45.7701107" lon="8.9703583"><ele>393.83333333333337</ele><time>2026-04-10T14:23:09.183Z</time></trkpt><trkpt lat="45.7701861" lon="8.9702905"><ele>394.0</ele><time>2026-04-10T14:23:12.16Z</time></trkpt><trkpt lat="45.770266" lon="8.9702303"><ele>394.0</ele><time>2026-04-10T14:23:15.139Z</time></trkpt><trkpt lat="45.770346" lon="8.9701867"><ele>394.0</ele><time>2026-04-10T14:23:18.124Z</time></trkpt><trkpt lat="45.7704261" lon="8.9701388"><ele>394.0</ele><time>2026-04-10T14:23:21.17Z</time></trkpt><trkpt lat="45.7704882" lon="8.9700881"><ele>394.0</ele><time>2026-04-10T14:23:24.244Z</time></trkpt><trkpt lat="45.7705302" lon="8.9699996"><ele>394.0</ele><time>2026-04-10T14:23:28.199Z</time></trkpt><trkpt lat="45.7705608" lon="8.9699179"><ele>394.0</ele><time>2026-04-10T14:23:32.107Z</time></trkpt><trkpt lat="45.7706046" lon="8.9698502"><ele>394.0</ele><time>2026-04-10T14:23:35.184Z</time></trkpt><trkpt lat="45.7706576" lon="8.9697899"><ele>394.33333333333337</ele><time>2026-04-10T14:23:38.241Z</time></trkpt><trkpt lat="45.770703" lon="8.9697075"><ele>394.6666666666667</ele><time>2026-04-10T14:23:41.145Z</time></trkpt><trkpt lat="45.7707481" lon="8.9696357"><ele>395.0</ele><time>2026-04-10T14:23:44.136Z</time></trkpt><trkpt lat="45.7708074" lon="8.9695599"><ele>395.33333333333337</ele><time>2026-04-10T14:23:47.28Z</time></trkpt><trkpt lat="45.7708735" lon="8.969489"><ele>395.6666666666667</ele><time>2026-04-10T14:23:50.426Z</time></trkpt><trkpt lat="45.7709489" lon="8.9693992"><ele>396.0</ele><time>2026-04-10T14:23:53.568Z</time></trkpt><trkpt lat="45.7710299" lon="8.9693441"><ele>394.6666666666667</ele><time>2026-04-10T14:23:56.661Z</time></trkpt><trkpt lat="45.7711041" lon="8.9693092"><ele>393.33333333333337</ele><time>2026-04-10T14:23:58.827Z</time></trkpt><trkpt lat="45.7711758" lon="8.969285"><ele>392.0</ele><time>2026-04-10T14:24:00.965Z</time></trkpt><trkpt lat="45.7712461" lon="8.9692534"><ele>390.6666666666667</ele><time>2026-04-10T14:24:03.029Z</time></trkpt><trkpt lat="45.7713062" lon="8.9692131"><ele>389.33333333333337</ele><time>2026-04-10T14:24:05.159Z</time></trkpt><trkpt lat="45.7713866" lon="8.9691527"><ele>388.0</ele><time>2026-04-10T14:24:08.183Z</time></trkpt><trkpt lat="45.7714619" lon="8.9690964"><ele>388.00000000000006</ele><time>2026-04-10T14:24:11.163Z</time></trkpt><trkpt lat="45.771536" lon="8.9690454"><ele>388.0</ele><time>2026-04-10T14:24:14.14Z</time></trkpt><trkpt lat="45.7716039" lon="8.9690244"><ele>388.0</ele><time>2026-04-10T14:24:17.168Z</time></trkpt><trkpt lat="45.7716817" lon="8.9689944"><ele>388.0</ele><time>2026-04-10T14:24:20.364Z</time></trkpt><trkpt lat="45.7717647" lon="8.9689641"><ele>388.00000000000006</ele><time>2026-04-10T14:24:23.844Z</time></trkpt><trkpt lat="45.7718278" lon="8.9689405"><ele>388.0</ele><time>2026-04-10T14:24:26.983Z</time></trkpt><trkpt lat="45.771904" lon="8.9689346"><ele>388.33333333333337</ele><time>2026-04-10T14:24:31.182Z</time></trkpt><trkpt lat="45.7719954" lon="8.9689473"><ele>388.6666666666667</ele><time>2026-04-10T14:24:34.13Z</time></trkpt><trkpt lat="45.7720724" lon="8.9689927"><ele>389.0</ele><time>2026-04-10T14:24:37.243Z</time></trkpt><trkpt lat="45.7721464" lon="8.9690398"><ele>389.33333333333337</ele><time>2026-04-10T14:24:40.04Z</time></trkpt><trkpt lat="45.7722257" lon="8.9690657"><ele>389.6666666666667</ele><time>2026-04-10T14:24:43.242Z</time></trkpt><trkpt lat="45.7723012" lon="8.9690659"><ele>390.0</ele><time>2026-04-10T14:24:46.12Z</time></trkpt><trkpt lat="45.7723704" lon="8.9690881"><ele>390.0</ele><time>2026-04-10T14:24:49.26Z</time></trkpt><trkpt lat="45.7724371" lon="8.9691147"><ele>390.0</ele><time>2026-04-10T14:24:52.479Z</time></trkpt><trkpt lat="45.7724982" lon="8.9691624"><ele>390.0</ele><time>2026-04-10T14:24:55.642Z</time></trkpt><trkpt lat="45.7725578" lon="8.9692077"><ele>390.0</ele><time>2026-04-10T14:24:58.802Z</time></trkpt><trkpt lat="45.7726312" lon="8.9692505"><ele>390.0</ele><time>2026-04-10T14:25:03.096Z</time></trkpt><trkpt lat="45.7726908" lon="8.9692946"><ele>390.0</ele><time>2026-04-10T14:25:06.152Z</time></trkpt><trkpt lat="45.7727535" lon="8.9693429"><ele>390.0</ele><time>2026-04-10T14:25:09.103Z</time></trkpt><trkpt lat="45.7728301" lon="8.9693662"><ele>390.2857142857143</ele><time>2026-04-10T14:25:13.142Z</time></trkpt><trkpt lat="45.7728898" lon="8.9694084"><ele>390.57142857142856</ele><time>2026-04-10T14:25:17.225Z</time></trkpt><trkpt lat="45.7729471" lon="8.9694618"><ele>390.8571428571429</ele><time>2026-04-10T14:25:21.096Z</time></trkpt><trkpt lat="45.7730051" lon="8.9695023"><ele>391.1428571428571</ele><time>2026-04-10T14:25:24.139Z</time></trkpt><trkpt lat="45.7730523" lon="8.9695709"><ele>391.42857142857144</ele><time>2026-04-10T14:25:27.243Z</time></trkpt><trkpt lat="45.7730535" lon="8.9696941"><ele>391.7142857142857</ele><time>2026-04-10T14:25:29.063Z</time></trkpt><trkpt lat="45.7730668" lon="8.9698079"><ele>392.0</ele><time>2026-04-10T14:25:31.184Z</time></trkpt><trkpt lat="45.7731047" lon="8.9699001"><ele>391.99999999999994</ele><time>2026-04-10T14:25:34.128Z</time></trkpt><trkpt lat="45.7731961" lon="8.9699679"><ele>392.0</ele><time>2026-04-10T14:25:37.141Z</time></trkpt><trkpt lat="45.7732555" lon="8.9700191"><ele>392.0</ele><time>2026-04-10T14:25:39.147Z</time></trkpt><trkpt lat="45.7733164" lon="8.9700769"><ele>392.0</ele><time>2026-04-10T14:25:42.123Z</time></trkpt><trkpt lat="45.7733742" lon="8.9701469"><ele>391.99999999999994</ele><time>2026-04-10T14:25:45.128Z</time></trkpt><trkpt lat="45.7734284" lon="8.9701942"><ele>392.0</ele><time>2026-04-10T14:25:48.13Z</time></trkpt><trkpt lat="45.7735026" lon="8.9702359"><ele>391.66666666666663</ele><time>2026-04-10T14:25:52.129Z</time></trkpt><trkpt lat="45.7735691" lon="8.9702642"><ele>391.3333333333333</ele><time>2026-04-10T14:25:55.103Z</time></trkpt><trkpt lat="45.7736446" lon="8.970294"><ele>391.0</ele><time>2026-04-10T14:25:58.165Z</time></trkpt><trkpt lat="45.7737189" lon="8.9702616"><ele>390.66666666666663</ele><time>2026-04-10T14:26:01.242Z</time></trkpt><trkpt lat="45.7737874" lon="8.970197"><ele>390.3333333333333</ele><time>2026-04-10T14:26:04.129Z</time></trkpt><trkpt lat="45.7738493" lon="8.9701096"><ele>390.0</ele><time>2026-04-10T14:26:07.227Z</time></trkpt><trkpt lat="45.7739128" lon="8.9700242"><ele>390.0</ele><time>2026-04-10T14:26:10.194Z</time></trkpt><trkpt lat="45.7739604" lon="8.9699209"><ele>390.0</ele><time>2026-04-10T14:26:13.173Z</time></trkpt><trkpt lat="45.7739906" lon="8.9697946"><ele>390.0</ele><time>2026-04-10T14:26:16.155Z</time></trkpt><trkpt lat="45.7740339" lon="8.9696836"><ele>390.0</ele><time>2026-04-10T14:26:19.229Z</time></trkpt><trkpt lat="45.7740802" lon="8.9695893"><ele>390.0</ele><time>2026-04-10T14:26:22.129Z</time></trkpt><trkpt lat="45.7741341" lon="8.9694972"><ele>390.0</ele><time>2026-04-10T14:26:25.128Z</time></trkpt><trkpt lat="45.7741851" lon="8.9694011"><ele>390.0</ele><time>2026-04-10T14:26:28.142Z</time></trkpt><trkpt lat="45.77424" lon="8.9693"><ele>390.0</ele><time>2026-04-10T14:26:31.161Z</time></trkpt><trkpt lat="45.7742936" lon="8.969207"><ele>390.0</ele><time>2026-04-10T14:26:34.138Z</time></trkpt><trkpt lat="45.7743476" lon="8.9691227"><ele>390.0</ele><time>2026-04-10T14:26:37.128Z</time></trkpt><trkpt lat="45.7744019" lon="8.96906"><ele>390.0</ele><time>2026-04-10T14:26:40.211Z</time></trkpt><trkpt lat="45.7744642" lon="8.9689927"><ele>390.0</ele><time>2026-04-10T14:26:43.125Z</time></trkpt><trkpt lat="45.7745277" lon="8.9689239"><ele>389.8333333333333</ele><time>2026-04-10T14:26:46.239Z</time></trkpt><trkpt lat="45.7745966" lon="8.9688522"><ele>389.66666666666663</ele><time>2026-04-10T14:26:49.403Z</time></trkpt><trkpt lat="45.7746692" lon="8.9687791"><ele>389.5</ele><time>2026-04-10T14:26:52.897Z</time></trkpt><trkpt lat="45.7747397" lon="8.9687146"><ele>389.3333333333333</ele><time>2026-04-10T14:26:56.067Z</time></trkpt><trkpt lat="45.7748102" lon="8.9686373"><ele>389.16666666666663</ele><time>2026-04-10T14:26:59.142Z</time></trkpt><trkpt lat="45.7748706" lon="8.968563"><ele>389.0</ele><time>2026-04-10T14:27:02.207Z</time></trkpt><trkpt lat="45.7749397" lon="8.9685028"><ele>388.99999999999994</ele><time>2026-04-10T14:27:05.083Z</time></trkpt><trkpt lat="45.7750102" lon="8.9684156"><ele>389.0</ele><time>2026-04-10T14:27:08.143Z</time></trkpt><trkpt lat="45.7750757" lon="8.9683518"><ele>389.0</ele><time>2026-04-10T14:27:11.143Z</time></trkpt><trkpt lat="45.7751479" lon="8.9682902"><ele>389.0</ele><time>2026-04-10T14:27:15.153Z</time></trkpt><trkpt lat="45.7752058" lon="8.9682123"><ele>388.99999999999994</ele><time>2026-04-10T14:27:19.064Z</time></trkpt><trkpt lat="45.7752635" lon="8.968162"><ele>389.0</ele><time>2026-04-10T14:27:22.149Z</time></trkpt><trkpt lat="45.7753248" lon="8.9681188"><ele>389.16666666666663</ele><time>2026-04-10T14:27:25.199Z</time></trkpt><trkpt lat="45.7754074" lon="8.9681115"><ele>389.3333333333333</ele><time>2026-04-10T14:27:29.296Z</time></trkpt><trkpt lat="45.7754772" lon="8.968058"><ele>389.5</ele><time>2026-04-10T14:27:32.723Z</time></trkpt><trkpt lat="45.7755396" lon="8.9679866"><ele>389.66666666666663</ele><time>2026-04-10T14:27:35.817Z</time></trkpt><trkpt lat="45.7756056" lon="8.9679124"><ele>389.8333333333333</ele><time>2026-04-10T14:27:38.884Z</time></trkpt><trkpt lat="45.7756803" lon="8.9678404"><ele>390.0</ele><time>2026-04-10T14:27:41.975Z</time></trkpt><trkpt lat="45.7757439" lon="8.9677729"><ele>390.0</ele><time>2026-04-10T14:27:45.077Z</time></trkpt><trkpt lat="45.7758017" lon="8.9677267"><ele>390.0</ele><time>2026-04-10T14:27:48.131Z</time></trkpt><trkpt lat="45.7758623" lon="8.9676886"><ele>390.0</ele><time>2026-04-10T14:27:51.243Z</time></trkpt><trkpt lat="45.7759245" lon="8.9676503"><ele>390.0</ele><time>2026-04-10T14:27:54.131Z</time></trkpt><trkpt lat="45.7759948" lon="8.9676089"><ele>390.0</ele><time>2026-04-10T14:27:57.199Z</time></trkpt><trkpt lat="45.7760663" lon="8.9675617"><ele>390.0</ele><time>2026-04-10T14:28:00.083Z</time></trkpt><trkpt lat="45.7761347" lon="8.9674973"><ele>390.0</ele><time>2026-04-10T14:28:03.139Z</time></trkpt><trkpt lat="45.7761993" lon="8.9674263"><ele>390.57142857142856</ele><time>2026-04-10T14:28:06.265Z</time></trkpt><trkpt lat="45.7762539" lon="8.9673626"><ele>391.1428571428571</ele><time>2026-04-10T14:28:09.128Z</time></trkpt><trkpt lat="45.7763132" lon="8.9673125"><ele>391.7142857142857</ele><time>2026-04-10T14:28:12.138Z</time></trkpt><trkpt lat="45.7763772" lon="8.9672595"><ele>392.2857142857143</ele><time>2026-04-10T14:28:15.207Z</time></trkpt><trkpt lat="45.7764428" lon="8.9672028"><ele>392.8571428571429</ele><time>2026-04-10T14:28:18.165Z</time></trkpt><trkpt lat="45.776507" lon="8.967147"><ele>393.42857142857144</ele><time>2026-04-10T14:28:21.102Z</time></trkpt><trkpt lat="45.7765756" lon="8.9670815"><ele>394.0</ele><time>2026-04-10T14:28:24.177Z</time></trkpt><trkpt lat="45.7766395" lon="8.9670286"><ele>394.0</ele><time>2026-04-10T14:28:27.13Z</time></trkpt><trkpt lat="45.7766896" lon="8.9669697"><ele>394.0</ele><time>2026-04-10T14:28:30.082Z</time></trkpt><trkpt lat="45.776733" lon="8.966901"><ele>394.0</ele><time>2026-04-10T14:28:33.19Z</time></trkpt><trkpt lat="45.7767578" lon="8.9667984"><ele>394.0</ele><time>2026-04-10T14:28:37.184Z</time></trkpt><trkpt lat="45.7768004" lon="8.96672"><ele>394.0</ele><time>2026-04-10T14:28:41.026Z</time></trkpt><trkpt lat="45.7768561" lon="8.9666653"><ele>394.0</ele><time>2026-04-10T14:28:45.187Z</time></trkpt><trkpt lat="45.7768815" lon="8.9665789"><ele>394.0</ele><time>2026-04-10T14:28:51.116Z</time></trkpt><trkpt lat="45.7768601" lon="8.9664844"><ele>394.14285714285717</ele><time>2026-04-10T14:28:56.263Z</time></trkpt><trkpt lat="45.7768767" lon="8.9663769"><ele>394.28571428571433</ele><time>2026-04-10T14:29:00.428Z</time></trkpt><trkpt lat="45.7769261" lon="8.9662962"><ele>394.42857142857144</ele><time>2026-04-10T14:29:04.603Z</time></trkpt><trkpt lat="45.7769442" lon="8.966207"><ele>394.57142857142856</ele><time>2026-04-10T14:29:08.677Z</time></trkpt><trkpt lat="45.7769311" lon="8.9661116"><ele>394.7142857142857</ele><time>2026-04-10T14:29:11.821Z</time></trkpt><trkpt lat="45.7769403" lon="8.9660209"><ele>394.85714285714283</ele><time>2026-04-10T14:29:14.923Z</time></trkpt><trkpt lat="45.7769279" lon="8.9659321"><ele>395.0</ele><time>2026-04-10T14:29:18.101Z</time></trkpt><trkpt lat="45.776862" lon="8.9658452"><ele>395.0</ele><time>2026-04-10T14:29:21.129Z</time></trkpt><trkpt lat="45.7768254" lon="8.9657492"><ele>395.0</ele><time>2026-04-10T14:29:25.384Z</time></trkpt><trkpt lat="45.776802" lon="8.9656455"><ele>395.0</ele><time>2026-04-10T14:29:29.482Z</time></trkpt><trkpt lat="45.7767787" lon="8.9655543"><ele>395.0</ele><time>2026-04-10T14:29:34.025Z</time></trkpt><trkpt lat="45.7768102" lon="8.9654685"><ele>395.0</ele><time>2026-04-10T14:29:39.249Z</time></trkpt><trkpt lat="45.776786" lon="8.9653555"><ele>395.0</ele><time>2026-04-10T14:29:44.206Z</time></trkpt><trkpt lat="45.7767629" lon="8.9652614"><ele>395.0</ele><time>2026-04-10T14:29:47.184Z</time></trkpt><trkpt lat="45.7767236" lon="8.9651415"><ele>395.0</ele><time>2026-04-10T14:29:50.139Z</time></trkpt><trkpt lat="45.7766957" lon="8.9650559"><ele>395.0</ele><time>2026-04-10T14:29:52.128Z</time></trkpt><trkpt lat="45.7766635" lon="8.9649539"><ele>395.0</ele><time>2026-04-10T14:29:55.044Z</time></trkpt><trkpt lat="45.7766299" lon="8.9648437"><ele>395.0</ele><time>2026-04-10T14:29:58.137Z</time></trkpt><trkpt lat="45.7766082" lon="8.9647498"><ele>395.0</ele><time>2026-04-10T14:30:01.162Z</time></trkpt><trkpt lat="45.7765836" lon="8.9646278"><ele>395.0</ele><time>2026-04-10T14:30:05.025Z</time></trkpt><trkpt lat="45.7765611" lon="8.9645421"><ele>395.0</ele><time>2026-04-10T14:30:06.112Z</time></trkpt><trkpt lat="45.7765423" lon="8.9644377"><ele>394.85714285714283</ele><time>2026-04-10T14:30:09.225Z</time></trkpt><trkpt lat="45.7765053" lon="8.9643615"><ele>394.7142857142857</ele><time>2026-04-10T14:30:12.362Z</time></trkpt><trkpt lat="45.7764748" lon="8.9642546"><ele>394.57142857142856</ele><time>2026-04-10T14:30:16.515Z</time></trkpt><trkpt lat="45.7764743" lon="8.9641533"><ele>394.42857142857144</ele><time>2026-04-10T14:30:20.723Z</time></trkpt><trkpt lat="45.7764622" lon="8.9640548"><ele>394.28571428571433</ele><time>2026-04-10T14:30:23.859Z</time></trkpt><trkpt lat="45.7764257" lon="8.9639736"><ele>394.14285714285717</ele><time>2026-04-10T14:30:27.057Z</time></trkpt><trkpt lat="45.7763857" lon="8.9638946"><ele>394.0</ele><time>2026-04-10T14:30:31.161Z</time></trkpt><trkpt lat="45.7763688" lon="8.9637953"><ele>393.42857142857144</ele><time>2026-04-10T14:30:36.129Z</time></trkpt><trkpt lat="45.7763644" lon="8.9636984"><ele>392.8571428571429</ele><time>2026-04-10T14:30:40.169Z</time></trkpt><trkpt lat="45.776355" lon="8.9635959"><ele>392.2857142857143</ele><time>2026-04-10T14:30:44.129Z</time></trkpt><trkpt lat="45.7763013" lon="8.9635212"><ele>391.7142857142857</ele><time>2026-04-10T14:30:48.202Z</time></trkpt><trkpt lat="45.7762604" lon="8.9634324"><ele>391.1428571428571</ele><time>2026-04-10T14:30:52.144Z</time></trkpt><trkpt lat="45.7762112" lon="8.9633684"><ele>390.57142857142856</ele><time>2026-04-10T14:30:56.096Z</time></trkpt><trkpt lat="45.7761575" lon="8.9633174"><ele>390.0</ele><time>2026-04-10T14:30:59.225Z</time></trkpt><trkpt lat="45.7760898" lon="8.963282"><ele>390.0</ele><time>2026-04-10T14:31:02.129Z</time></trkpt><trkpt lat="45.7760113" lon="8.9632586"><ele>390.0</ele><time>2026-04-10T14:31:05.14Z</time></trkpt><trkpt lat="45.7759234" lon="8.9632547"><ele>390.0</ele><time>2026-04-10T14:31:08.234Z</time></trkpt><trkpt lat="45.7758585" lon="8.9632532"><ele>390.0</ele><time>2026-04-10T14:31:10.297Z</time></trkpt><trkpt lat="45.7757824" lon="8.9632732"><ele>390.0</ele><time>2026-04-10T14:31:12.382Z</time></trkpt><trkpt lat="45.775718" lon="8.9632821"><ele>390.0</ele><time>2026-04-10T14:31:14.463Z</time></trkpt><trkpt lat="45.775636" lon="8.9632492"><ele>390.0</ele><time>2026-04-10T14:31:17.92Z</time></trkpt><trkpt lat="45.7755772" lon="8.9632165"><ele>390.0</ele><time>2026-04-10T14:31:21.032Z</time></trkpt><trkpt lat="45.7755051" lon="8.9631758"><ele>390.0</ele><time>2026-04-10T14:31:25.171Z</time></trkpt><trkpt lat="45.7754429" lon="8.9631128"><ele>390.0</ele><time>2026-04-10T14:31:29.15Z</time></trkpt><trkpt lat="45.7753824" lon="8.963084"><ele>390.0</ele><time>2026-04-10T14:31:32.194Z</time></trkpt><trkpt lat="45.7753096" lon="8.963065"><ele>390.0</ele><time>2026-04-10T14:31:35.222Z</time></trkpt><trkpt lat="45.7752285" lon="8.9630078"><ele>390.0</ele><time>2026-04-10T14:31:38.183Z</time></trkpt><trkpt lat="45.7751573" lon="8.9630101"><ele>390.1428571428571</ele><time>2026-04-10T14:31:44.083Z</time></trkpt><trkpt lat="45.7750878" lon="8.9630263"><ele>390.2857142857143</ele><time>2026-04-10T14:31:48.224Z</time></trkpt><trkpt lat="45.775018" lon="8.9630431"><ele>390.42857142857144</ele><time>2026-04-10T14:31:53.209Z</time></trkpt><trkpt lat="45.7749562" lon="8.9630642"><ele>390.57142857142856</ele><time>2026-04-10T14:31:58.26Z</time></trkpt><trkpt lat="45.7748958" lon="8.9630183"><ele>390.7142857142857</ele><time>2026-04-10T14:32:05.131Z</time></trkpt><trkpt lat="45.7748173" lon="8.9630113"><ele>390.85714285714283</ele><time>2026-04-10T14:32:09.412Z</time></trkpt><trkpt lat="45.7747532" lon="8.9630445"><ele>391.0</ele><time>2026-04-10T14:32:12.904Z</time></trkpt><trkpt lat="45.7746994" lon="8.9630996"><ele>391.00000000000006</ele><time>2026-04-10T14:32:19.13Z</time></trkpt><trkpt lat="45.7746229" lon="8.9631262"><ele>391.0</ele><time>2026-04-10T14:32:26.131Z</time></trkpt><trkpt lat="45.774546" lon="8.9631196"><ele>391.0</ele><time>2026-04-10T14:32:30.132Z</time></trkpt><trkpt lat="45.7744717" lon="8.9631256"><ele>391.0</ele><time>2026-04-10T14:32:34.135Z</time></trkpt><trkpt lat="45.7743932" lon="8.9631422"><ele>391.00000000000006</ele><time>2026-04-10T14:32:38.129Z</time></trkpt><trkpt lat="45.7743252" lon="8.9631785"><ele>391.0</ele><time>2026-04-10T14:32:43.084Z</time></trkpt><trkpt lat="45.7742664" lon="8.9632336"><ele>391.2857142857143</ele><time>2026-04-10T14:32:46.139Z</time></trkpt><trkpt lat="45.7742172" lon="8.9632901"><ele>391.57142857142856</ele><time>2026-04-10T14:32:49.129Z</time></trkpt><trkpt lat="45.774156" lon="8.9633382"><ele>391.8571428571429</ele><time>2026-04-10T14:32:52.211Z</time></trkpt><trkpt lat="45.7740835" lon="8.963403"><ele>392.1428571428571</ele><time>2026-04-10T14:32:56.227Z</time></trkpt><trkpt lat="45.7740186" lon="8.963458"><ele>392.42857142857144</ele><time>2026-04-10T14:33:00.133Z</time></trkpt><trkpt lat="45.7739603" lon="8.9635008"><ele>392.7142857142857</ele><time>2026-04-10T14:33:03.211Z</time></trkpt><trkpt lat="45.773901" lon="8.963558"><ele>393.0</ele><time>2026-04-10T14:33:07.205Z</time></trkpt><trkpt lat="45.773843" lon="8.9636188"><ele>393.00000000000006</ele><time>2026-04-10T14:33:10.152Z</time></trkpt><trkpt lat="45.7737909" lon="8.9636897"><ele>393.0</ele><time>2026-04-10T14:33:13.421Z</time></trkpt><trkpt lat="45.7737341" lon="8.9637511"><ele>393.0</ele><time>2026-04-10T14:33:16.657Z</time></trkpt><trkpt lat="45.7736773" lon="8.9637956"><ele>393.0</ele><time>2026-04-10T14:33:19.901Z</time></trkpt><trkpt lat="45.7736259" lon="8.9638948"><ele>393.0</ele><time>2026-04-10T14:33:24.163Z</time></trkpt><trkpt lat="45.773565" lon="8.9639578"><ele>393.00000000000006</ele><time>2026-04-10T14:33:28.129Z</time></trkpt><trkpt lat="45.7735068" lon="8.964018"><ele>393.0</ele><time>2026-04-10T14:33:33.131Z</time></trkpt><trkpt lat="45.7734563" lon="8.9640836"><ele>393.3333333333333</ele><time>2026-04-10T14:33:38.154Z</time></trkpt><trkpt lat="45.7734045" lon="8.9641396"><ele>393.66666666666663</ele><time>2026-04-10T14:33:41.154Z</time></trkpt><trkpt lat="45.7733448" lon="8.9641943"><ele>394.0</ele><time>2026-04-10T14:33:44.13Z</time></trkpt><trkpt lat="45.7732835" lon="8.9642523"><ele>394.3333333333333</ele><time>2026-04-10T14:33:47.203Z</time></trkpt><trkpt lat="45.7732062" lon="8.9642951"><ele>394.66666666666663</ele><time>2026-04-10T14:33:51.085Z</time></trkpt><trkpt lat="45.7731349" lon="8.9643631"><ele>395.0</ele><time>2026-04-10T14:33:54.193Z</time></trkpt><trkpt lat="45.7730741" lon="8.9644203"><ele>395.0</ele><time>2026-04-10T14:33:57.203Z</time></trkpt><trkpt lat="45.7730194" lon="8.9644875"><ele>395.0</ele><time>2026-04-10T14:34:00.401Z</time></trkpt><trkpt lat="45.7729572" lon="8.9645642"><ele>395.0</ele><time>2026-04-10T14:34:04.626Z</time></trkpt><trkpt lat="45.7728915" lon="8.9646054"><ele>395.0</ele><time>2026-04-10T14:34:08.883Z</time></trkpt><trkpt lat="45.7728455" lon="8.9646783"><ele>395.0</ele><time>2026-04-10T14:34:12.063Z</time></trkpt><trkpt lat="45.7727903" lon="8.9647264"><ele>395.0</ele><time>2026-04-10T14:34:15.159Z</time></trkpt><trkpt lat="45.7727356" lon="8.9647788"><ele>395.0</ele><time>2026-04-10T14:34:18.138Z</time></trkpt><trkpt lat="45.7726837" lon="8.9648325"><ele>395.2857142857143</ele><time>2026-04-10T14:34:21.134Z</time></trkpt><trkpt lat="45.7726059" lon="8.9648763"><ele>395.5714285714286</ele><time>2026-04-10T14:34:25.13Z</time></trkpt><trkpt lat="45.7725351" lon="8.9649057"><ele>395.8571428571429</ele><time>2026-04-10T14:34:28.129Z</time></trkpt><trkpt lat="45.7724758" lon="8.9649375"><ele>396.1428571428571</ele><time>2026-04-10T14:34:31.13Z</time></trkpt><trkpt lat="45.7724215" lon="8.9649889"><ele>396.42857142857144</ele><time>2026-04-10T14:34:35.482Z</time></trkpt><trkpt lat="45.7723647" lon="8.9650353"><ele>396.7142857142857</ele><time>2026-04-10T14:34:39.836Z</time></trkpt><trkpt lat="45.7722937" lon="8.9651009"><ele>397.0</ele><time>2026-04-10T14:34:44.147Z</time></trkpt><trkpt lat="45.7722289" lon="8.9651632"><ele>396.83333333333337</ele><time>2026-04-10T14:34:47.129Z</time></trkpt><trkpt lat="45.7721552" lon="8.9652312"><ele>396.6666666666667</ele><time>2026-04-10T14:34:50.226Z</time></trkpt><trkpt lat="45.772092" lon="8.9652835"><ele>396.5</ele><time>2026-04-10T14:34:53.109Z</time></trkpt><trkpt lat="45.7720125" lon="8.9653518"><ele>396.33333333333337</ele><time>2026-04-10T14:34:56.693Z</time></trkpt><trkpt lat="45.7719043" lon="8.965425"><ele>396.1666666666667</ele><time>2026-04-10T14:35:00.185Z</time></trkpt><trkpt lat="45.7718441" lon="8.965479"><ele>396.0</ele><time>2026-04-10T14:35:02.132Z</time></trkpt><trkpt lat="45.7717826" lon="8.9655392"><ele>396.0</ele><time>2026-04-10T14:35:07.173Z</time></trkpt><trkpt lat="45.771712" lon="8.9656227"><ele>396.0</ele><time>2026-04-10T14:35:09.13Z</time></trkpt><trkpt lat="45.7716428" lon="8.9656883"><ele>396.0</ele><time>2026-04-10T14:35:13.131Z</time></trkpt><trkpt lat="45.7715786" lon="8.9657365"><ele>396.0</ele><time>2026-04-10T14:35:16.063Z</time></trkpt><trkpt lat="45.7715062" lon="8.9657794"><ele>396.0</ele><time>2026-04-10T14:35:19.203Z</time></trkpt><trkpt lat="45.771438" lon="8.9657834"><ele>396.0</ele><time>2026-04-10T14:35:22.22Z</time></trkpt><trkpt lat="45.7713689" lon="8.9658066"><ele>396.0</ele><time>2026-04-10T14:35:26.066Z</time></trkpt><trkpt lat="45.7712882" lon="8.9658144"><ele>396.0</ele><time>2026-04-10T14:35:33.181Z</time></trkpt><trkpt lat="45.7712245" lon="8.9658325"><ele>396.0</ele><time>2026-04-10T14:35:34.128Z</time></trkpt><trkpt lat="45.7711612" lon="8.9658644"><ele>396.0</ele><time>2026-04-10T14:35:36.222Z</time></trkpt><trkpt lat="45.7711042" lon="8.9659114"><ele>396.0</ele><time>2026-04-10T14:35:40.157Z</time></trkpt><trkpt lat="45.7710385" lon="8.9659611"><ele>396.0</ele><time>2026-04-10T14:35:44.179Z</time></trkpt><trkpt lat="45.7709767" lon="8.9660137"><ele>396.0</ele><time>2026-04-10T14:35:49.129Z</time></trkpt><trkpt lat="45.7709022" lon="8.9660223"><ele>396.2857142857143</ele><time>2026-04-10T14:35:51.183Z</time></trkpt><trkpt lat="45.7708467" lon="8.9660819"><ele>396.57142857142856</ele><time>2026-04-10T14:35:55.081Z</time></trkpt><trkpt lat="45.7707855" lon="8.9661458"><ele>396.85714285714283</ele><time>2026-04-10T14:35:59.072Z</time></trkpt><trkpt lat="45.7707327" lon="8.9662051"><ele>397.1428571428571</ele><time>2026-04-10T14:36:02.168Z</time></trkpt><trkpt lat="45.7706759" lon="8.9662869"><ele>397.42857142857144</ele><time>2026-04-10T14:36:06.237Z</time></trkpt><trkpt lat="45.7706217" lon="8.9663536"><ele>397.71428571428567</ele><time>2026-04-10T14:36:10.437Z</time></trkpt><trkpt lat="45.7705568" lon="8.966418"><ele>398.0</ele><time>2026-04-10T14:36:14.663Z</time></trkpt><trkpt lat="45.7704956" lon="8.9664731"><ele>397.99999999999994</ele><time>2026-04-10T14:36:17.861Z</time></trkpt><trkpt lat="45.7704303" lon="8.9665314"><ele>398.0</ele><time>2026-04-10T14:36:21.109Z</time></trkpt><trkpt lat="45.770378" lon="8.9665892"><ele>398.0</ele><time>2026-04-10T14:36:25.195Z</time></trkpt><trkpt lat="45.7702739" lon="8.9667372"><ele>398.0</ele><time>2026-04-10T14:36:30.129Z</time></trkpt><trkpt lat="45.7702088" lon="8.9667838"><ele>397.99999999999994</ele><time>2026-04-10T14:36:34.174Z</time></trkpt><trkpt lat="45.7701288" lon="8.9668274"><ele>398.0</ele><time>2026-04-10T14:36:38.444Z</time></trkpt><trkpt lat="45.7700572" lon="8.9668626"><ele>398.3333333333333</ele><time>2026-04-10T14:36:43.021Z</time></trkpt><trkpt lat="45.7699896" lon="8.966879"><ele>398.66666666666663</ele><time>2026-04-10T14:36:46.262Z</time></trkpt><trkpt lat="45.7698972" lon="8.9668721"><ele>399.0</ele><time>2026-04-10T14:36:50.151Z</time></trkpt><trkpt lat="45.7698178" lon="8.9668509"><ele>399.33333333333337</ele><time>2026-04-10T14:36:54.129Z</time></trkpt><trkpt lat="45.7697472" lon="8.96685"><ele>399.6666666666667</ele><time>2026-04-10T14:36:58.1Z</time></trkpt><trkpt lat="45.7696774" lon="8.9668428"><ele>400.0</ele><time>2026-04-10T14:37:02.201Z</time></trkpt><trkpt lat="45.7696055" lon="8.9668472"><ele>400.00000000000006</ele><time>2026-04-10T14:37:05.239Z</time></trkpt><trkpt lat="45.7695289" lon="8.9668408"><ele>400.0</ele><time>2026-04-10T14:37:10.643Z</time></trkpt><trkpt lat="45.769462" lon="8.9669381"><ele>400.0</ele><time>2026-04-10T14:37:11.79Z</time></trkpt><trkpt lat="45.7694014" lon="8.9669913"><ele>400.0</ele><time>2026-04-10T14:37:14.233Z</time></trkpt><trkpt lat="45.7693249" lon="8.966985"><ele>400.00000000000006</ele><time>2026-04-10T14:37:17.154Z</time></trkpt><trkpt lat="45.7692297" lon="8.9669487"><ele>400.0</ele><time>2026-04-10T14:37:20.19Z</time></trkpt><trkpt lat="45.7691508" lon="8.9669098"><ele>399.8</ele><time>2026-04-10T14:37:23.245Z</time></trkpt><trkpt lat="45.7690186" lon="8.9668818"><ele>399.6</ele><time>2026-04-10T14:37:26.531Z</time></trkpt><trkpt lat="45.7689526" lon="8.9668917"><ele>399.4</ele><time>2026-04-10T14:37:27.676Z</time></trkpt><trkpt lat="45.768874" lon="8.9668947"><ele>399.2</ele><time>2026-04-10T14:37:29.842Z</time></trkpt><trkpt lat="45.7687843" lon="8.9668958"><ele>399.0</ele><time>2026-04-10T14:37:33.15Z</time></trkpt><trkpt lat="45.7686835" lon="8.9668827"><ele>399.0</ele><time>2026-04-10T14:37:36.281Z</time></trkpt><trkpt lat="45.7686135" lon="8.9668752"><ele>399.0</ele><time>2026-04-10T14:37:38.468Z</time></trkpt><trkpt lat="45.7685387" lon="8.9668662"><ele>399.0</ele><time>2026-04-10T14:37:40.663Z</time></trkpt><trkpt lat="45.7684629" lon="8.9668516"><ele>399.0</ele><time>2026-04-10T14:37:42.826Z</time></trkpt><trkpt lat="45.7683002" lon="8.9668334"><ele>399.0</ele><time>2026-04-10T14:37:46.066Z</time></trkpt><trkpt lat="45.7682351" lon="8.9668321"><ele>397.8333333333333</ele><time>2026-04-10T14:37:47.142Z</time></trkpt><trkpt lat="45.7681509" lon="8.9668009"><ele>396.66666666666663</ele><time>2026-04-10T14:37:50.207Z</time></trkpt><trkpt lat="45.7680785" lon="8.9667997"><ele>395.5</ele><time>2026-04-10T14:37:53.174Z</time></trkpt><trkpt lat="45.7680052" lon="8.9668124"><ele>394.3333333333333</ele><time>2026-04-10T14:37:57.155Z</time></trkpt><trkpt lat="45.7679236" lon="8.966782"><ele>393.16666666666663</ele><time>2026-04-10T14:38:02.122Z</time></trkpt><trkpt lat="45.7678551" lon="8.9667636"><ele>392.0</ele><time>2026-04-10T14:38:05.129Z</time></trkpt><trkpt lat="45.7677875" lon="8.966762"><ele>391.99999999999994</ele><time>2026-04-10T14:38:08.143Z</time></trkpt><trkpt lat="45.7677143" lon="8.9667364"><ele>392.0</ele><time>2026-04-10T14:38:12.123Z</time></trkpt><trkpt lat="45.7676512" lon="8.9667154"><ele>392.0</ele><time>2026-04-10T14:38:16.341Z</time></trkpt><trkpt lat="45.7675815" lon="8.9666965"><ele>392.0</ele><time>2026-04-10T14:38:21.585Z</time></trkpt><trkpt lat="45.7675086" lon="8.9666735"><ele>391.99999999999994</ele><time>2026-04-10T14:38:28.044Z</time></trkpt><trkpt lat="45.7674176" lon="8.9666612"><ele>392.0</ele><time>2026-04-10T14:38:35.128Z</time></trkpt><trkpt lat="45.7673418" lon="8.9666576"><ele>392.8</ele><time>2026-04-10T14:38:37.143Z</time></trkpt><trkpt lat="45.7672447" lon="8.9666051"><ele>393.6</ele><time>2026-04-10T14:38:46.127Z</time></trkpt><trkpt lat="45.7671768" lon="8.9665626"><ele>394.40000000000003</ele><time>2026-04-10T14:38:48.154Z</time></trkpt><trkpt lat="45.7671077" lon="8.9665588"><ele>395.20000000000005</ele><time>2026-04-10T14:38:53.233Z</time></trkpt><trkpt lat="45.7670452" lon="8.9665386"><ele>396.0</ele><time>2026-04-10T14:38:59.053Z</time></trkpt><trkpt lat="45.7669069" lon="8.9663922"><ele>396.0</ele><time>2026-04-10T14:39:10.226Z</time></trkpt><trkpt lat="45.7668709" lon="8.9663125"><ele>396.0</ele><time>2026-04-10T14:39:14.144Z</time></trkpt><trkpt lat="45.7667947" lon="8.966149"><ele>396.0</ele><time>2026-04-10T14:39:19.244Z</time></trkpt><trkpt lat="45.7667377" lon="8.9660511"><ele>396.0</ele><time>2026-04-10T14:39:22.082Z</time></trkpt><trkpt lat="45.7666727" lon="8.9659939"><ele>396.0</ele><time>2026-04-10T14:39:26.129Z</time></trkpt><trkpt lat="45.7665782" lon="8.9658841"><ele>397.0</ele><time>2026-04-10T14:39:28.065Z</time></trkpt><trkpt lat="45.7665246" lon="8.9658193"><ele>398.0</ele><time>2026-04-10T14:39:30.226Z</time></trkpt><trkpt lat="45.7664691" lon="8.9657254"><ele>399.0</ele><time>2026-04-10T14:39:33.129Z</time></trkpt><trkpt lat="45.7664124" lon="8.9656614"><ele>400.0</ele><time>2026-04-10T14:39:36.125Z</time></trkpt><trkpt lat="45.7663445" lon="8.9655979"><ele>401.0</ele><time>2026-04-10T14:39:39.165Z</time></trkpt><trkpt lat="45.766267" lon="8.9655477"><ele>402.0</ele><time>2026-04-10T14:39:42.144Z</time></trkpt><trkpt lat="45.7662063" lon="8.9655153"><ele>402.0</ele><time>2026-04-10T14:39:44.144Z</time></trkpt><trkpt lat="45.7661421" lon="8.965485"><ele>402.0</ele><time>2026-04-10T14:39:47.185Z</time></trkpt><trkpt lat="45.7660635" lon="8.9654529"><ele>402.0</ele><time>2026-04-10T14:39:51.179Z</time></trkpt><trkpt lat="45.7660063" lon="8.9654113"><ele>402.0</ele><time>2026-04-10T14:39:55.13Z</time></trkpt><trkpt lat="45.7659446" lon="8.9653798"><ele>402.0</ele><time>2026-04-10T14:39:59.224Z</time></trkpt><trkpt lat="45.7658725" lon="8.9653727"><ele>402.0</ele><time>2026-04-10T14:40:03.15Z</time></trkpt><trkpt lat="45.765802" lon="8.9653403"><ele>402.0</ele><time>2026-04-10T14:40:09.162Z</time></trkpt><trkpt lat="45.765727" lon="8.9653357"><ele>402.0</ele><time>2026-04-10T14:40:13.192Z</time></trkpt><trkpt lat="45.7656593" lon="8.9653181"><ele>402.0</ele><time>2026-04-10T14:40:17.203Z</time></trkpt><trkpt lat="45.7655815" lon="8.9653073"><ele>402.0</ele><time>2026-04-10T14:40:21.171Z</time></trkpt><trkpt lat="45.7654477" lon="8.9652631"><ele>402.0</ele><time>2026-04-10T14:40:27.17Z</time></trkpt><trkpt lat="45.7653808" lon="8.9652165"><ele>402.0</ele><time>2026-04-10T14:40:33.129Z</time></trkpt><trkpt lat="45.765316" lon="8.9651655"><ele>402.0</ele><time>2026-04-10T14:40:39.521Z</time></trkpt><trkpt lat="45.7652739" lon="8.9650877"><ele>402.1428571428571</ele><time>2026-04-10T14:40:47.056Z</time></trkpt><trkpt lat="45.7652647" lon="8.964973"><ele>402.28571428571433</ele><time>2026-04-10T14:40:51.425Z</time></trkpt><trkpt lat="45.765256" lon="8.9648686"><ele>402.42857142857144</ele><time>2026-04-10T14:40:54.642Z</time></trkpt><trkpt lat="45.7652291" lon="8.9647783"><ele>402.57142857142856</ele><time>2026-04-10T14:40:59.348Z</time></trkpt><trkpt lat="45.7651863" lon="8.9646986"><ele>402.71428571428567</ele><time>2026-04-10T14:41:03.662Z</time></trkpt><trkpt lat="45.7651313" lon="8.9646081"><ele>402.8571428571429</ele><time>2026-04-10T14:41:07.155Z</time></trkpt><trkpt lat="45.7650757" lon="8.9645614"><ele>403.0</ele><time>2026-04-10T14:41:11.165Z</time></trkpt><trkpt lat="45.765059" lon="8.9644161"><ele>403.0</ele><time>2026-04-10T14:41:12.129Z</time></trkpt><trkpt lat="45.7650277" lon="8.9643107"><ele>403.0</ele><time>2026-04-10T14:41:15.144Z</time></trkpt><trkpt lat="45.7649846" lon="8.9642277"><ele>403.0</ele><time>2026-04-10T14:41:18.154Z</time></trkpt><trkpt lat="45.7649382" lon="8.964152"><ele>403.0</ele><time>2026-04-10T14:41:23.225Z</time></trkpt><trkpt lat="45.764887" lon="8.9640887"><ele>403.0</ele><time>2026-04-10T14:41:27.08Z</time></trkpt><trkpt lat="45.7648262" lon="8.9640212"><ele>403.0</ele><time>2026-04-10T14:41:31.128Z</time></trkpt><trkpt lat="45.7647522" lon="8.9639852"><ele>403.0</ele><time>2026-04-10T14:41:35.128Z</time></trkpt><trkpt lat="45.7646512" lon="8.9640286"><ele>404.33333333333337</ele><time>2026-04-10T14:41:39.242Z</time></trkpt><trkpt lat="45.7645794" lon="8.9640472"><ele>405.6666666666667</ele><time>2026-04-10T14:41:42.128Z</time></trkpt><trkpt lat="45.7645139" lon="8.9640361"><ele>407.0</ele><time>2026-04-10T14:41:45.043Z</time></trkpt><trkpt lat="45.7644277" lon="8.9640291"><ele>408.33333333333337</ele><time>2026-04-10T14:41:48.171Z</time></trkpt><trkpt lat="45.7643492" lon="8.9640279"><ele>409.6666666666667</ele><time>2026-04-10T14:41:52.064Z</time></trkpt><trkpt lat="45.7642756" lon="8.9640386"><ele>411.0</ele><time>2026-04-10T14:41:56.281Z</time></trkpt><trkpt lat="45.7641876" lon="8.9640496"><ele>411.0</ele><time>2026-04-10T14:42:01.161Z</time></trkpt><trkpt lat="45.7641151" lon="8.9640746"><ele>411.0</ele><time>2026-04-10T14:42:05.243Z</time></trkpt><trkpt lat="45.7640508" lon="8.9641155"><ele>411.0</ele><time>2026-04-10T14:42:08.161Z</time></trkpt><trkpt lat="45.7639763" lon="8.9641526"><ele>411.0</ele><time>2026-04-10T14:42:11.342Z</time></trkpt><trkpt lat="45.7639013" lon="8.9641917"><ele>411.0</ele><time>2026-04-10T14:42:14.491Z</time></trkpt><trkpt lat="45.7638284" lon="8.9642236"><ele>411.0</ele><time>2026-04-10T14:42:17.69Z</time></trkpt><trkpt lat="45.7637583" lon="8.9642681"><ele>410.7142857142857</ele><time>2026-04-10T14:42:20.841Z</time></trkpt><trkpt lat="45.7636936" lon="8.9643351"><ele>410.42857142857144</ele><time>2026-04-10T14:42:24.359Z</time></trkpt><trkpt lat="45.7636256" lon="8.9643995"><ele>410.1428571428571</ele><time>2026-04-10T14:42:28.045Z</time></trkpt><trkpt lat="45.7635648" lon="8.9644465"><ele>409.8571428571429</ele><time>2026-04-10T14:42:31.137Z</time></trkpt><trkpt lat="45.7635128" lon="8.9645019"><ele>409.5714285714286</ele><time>2026-04-10T14:42:34.128Z</time></trkpt><trkpt lat="45.7634499" lon="8.9645501"><ele>409.2857142857143</ele><time>2026-04-10T14:42:38.129Z</time></trkpt><trkpt lat="45.7633844" lon="8.9645794"><ele>409.0</ele><time>2026-04-10T14:42:41.128Z</time></trkpt><trkpt lat="45.7633186" lon="8.9646173"><ele>409.0</ele><time>2026-04-10T14:42:44.13Z</time></trkpt><trkpt lat="45.763259" lon="8.9646629"><ele>409.0</ele><time>2026-04-10T14:42:47.13Z</time></trkpt><trkpt lat="45.7632059" lon="8.9647342"><ele>409.0</ele><time>2026-04-10T14:42:50.105Z</time></trkpt><trkpt lat="45.763173" lon="8.9648201"><ele>409.0</ele><time>2026-04-10T14:42:56.128Z</time></trkpt><trkpt lat="45.7631811" lon="8.9649105"><ele>409.0</ele><time>2026-04-10T14:42:57.118Z</time></trkpt><trkpt lat="45.7631407" lon="8.9650015"><ele>409.0</ele><time>2026-04-10T14:43:00.21Z</time></trkpt><trkpt lat="45.7631396" lon="8.9651078"><ele>409.0</ele><time>2026-04-10T14:43:05.164Z</time></trkpt><trkpt lat="45.7631095" lon="8.9652128"><ele>408.1428571428571</ele><time>2026-04-10T14:43:10.24Z</time></trkpt><trkpt lat="45.763079" lon="8.9653196"><ele>407.28571428571433</ele><time>2026-04-10T14:43:15.682Z</time></trkpt><trkpt lat="45.76305" lon="8.9654243"><ele>406.42857142857144</ele><time>2026-04-10T14:43:19.173Z</time></trkpt><trkpt lat="45.7630077" lon="8.965498"><ele>405.57142857142856</ele><time>2026-04-10T14:43:22.128Z</time></trkpt><trkpt lat="45.7629472" lon="8.9655787"><ele>404.71428571428567</ele><time>2026-04-10T14:43:26.199Z</time></trkpt><trkpt lat="45.7628883" lon="8.9656271"><ele>403.8571428571429</ele><time>2026-04-10T14:43:30.382Z</time></trkpt><trkpt lat="45.7628312" lon="8.9656828"><ele>403.0</ele><time>2026-04-10T14:43:35.574Z</time></trkpt><trkpt lat="45.7627843" lon="8.965761"><ele>403.00000000000006</ele><time>2026-04-10T14:43:40.126Z</time></trkpt><trkpt lat="45.7627195" lon="8.9658415"><ele>403.0</ele><time>2026-04-10T14:43:44.13Z</time></trkpt><trkpt lat="45.7626635" lon="8.9659174"><ele>403.0</ele><time>2026-04-10T14:43:47.1Z</time></trkpt><trkpt lat="45.7626018" lon="8.9659841"><ele>403.0</ele><time>2026-04-10T14:43:50.165Z</time></trkpt><trkpt lat="45.762523" lon="8.9660515"><ele>403.00000000000006</ele><time>2026-04-10T14:43:52.656Z</time></trkpt><trkpt lat="45.7624551" lon="8.9660869"><ele>403.0</ele><time>2026-04-10T14:43:53.663Z</time></trkpt><trkpt lat="45.7623917" lon="8.9661359"><ele>403.00000000000006</ele><time>2026-04-10T14:43:55.779Z</time></trkpt><trkpt lat="45.7623341" lon="8.966196"><ele>403.0</ele><time>2026-04-10T14:43:58.183Z</time></trkpt><trkpt lat="45.7622609" lon="8.9662681"><ele>403.0</ele><time>2026-04-10T14:44:01.189Z</time></trkpt><trkpt lat="45.7622059" lon="8.9663292"><ele>403.0</ele><time>2026-04-10T14:44:03.093Z</time></trkpt><trkpt lat="45.7621487" lon="8.9663779"><ele>403.00000000000006</ele><time>2026-04-10T14:44:05.242Z</time></trkpt><trkpt lat="45.7620809" lon="8.966465"><ele>403.0</ele><time>2026-04-10T14:44:09.064Z</time></trkpt><trkpt lat="45.7620291" lon="8.9665241"><ele>403.00000000000006</ele><time>2026-04-10T14:44:13.123Z</time></trkpt><trkpt lat="45.7619741" lon="8.9665863"><ele>403.0</ele><time>2026-04-10T14:44:17.045Z</time></trkpt><trkpt lat="45.7619412" lon="8.966713"><ele>403.0</ele><time>2026-04-10T14:44:28.129Z</time></trkpt><trkpt lat="45.7619444" lon="8.9668147"><ele>403.0</ele><time>2026-04-10T14:44:33.313Z</time></trkpt><trkpt lat="45.7620249" lon="8.9669527"><ele>403.00000000000006</ele><time>2026-04-10T14:44:38.743Z</time></trkpt><trkpt lat="45.7620916" lon="8.967016"><ele>403.0</ele><time>2026-04-10T14:44:40.929Z</time></trkpt><trkpt lat="45.7621471" lon="8.9671127"><ele>402.00000000000006</ele><time>2026-04-10T14:44:44.075Z</time></trkpt><trkpt lat="45.7622002" lon="8.9671668"><ele>401.0</ele><time>2026-04-10T14:44:47.132Z</time></trkpt><trkpt lat="45.7622643" lon="8.9672297"><ele>400.0</ele><time>2026-04-10T14:44:51.142Z</time></trkpt><trkpt lat="45.7623171" lon="8.9672962"><ele>399.0</ele><time>2026-04-10T14:44:55.152Z</time></trkpt><trkpt lat="45.7623642" lon="8.9673711"><ele>398.00000000000006</ele><time>2026-04-10T14:44:58.131Z</time></trkpt><trkpt lat="45.7624361" lon="8.9674179"><ele>397.0</ele><time>2026-04-10T14:45:04.172Z</time></trkpt><trkpt lat="45.762421" lon="8.9675672"><ele>396.42857142857144</ele><time>2026-04-10T14:45:05.213Z</time></trkpt><trkpt lat="45.7624703" lon="8.9676755"><ele>395.85714285714283</ele><time>2026-04-10T14:45:09.409Z</time></trkpt><trkpt lat="45.7625175" lon="8.967755"><ele>395.28571428571433</ele><time>2026-04-10T14:45:13.095Z</time></trkpt><trkpt lat="45.7625671" lon="8.967816"><ele>394.7142857142857</ele><time>2026-04-10T14:45:16.137Z</time></trkpt><trkpt lat="45.7626242" lon="8.967881"><ele>394.14285714285717</ele><time>2026-04-10T14:45:19.16Z</time></trkpt><trkpt lat="45.7626718" lon="8.9679464"><ele>393.5714285714286</ele><time>2026-04-10T14:45:22.163Z</time></trkpt><trkpt lat="45.7627121" lon="8.9680223"><ele>393.0</ele><time>2026-04-10T14:45:26.207Z</time></trkpt><trkpt lat="45.7627762" lon="8.9680313"><ele>393.0</ele><time>2026-04-10T14:45:30.128Z</time></trkpt><trkpt lat="45.76283" lon="8.9680957"><ele>393.0</ele><time>2026-04-10T14:45:39.247Z</time></trkpt><trkpt lat="45.7628361" lon="8.9682404"><ele>393.0</ele><time>2026-04-10T14:45:46.216Z</time></trkpt><trkpt lat="45.7628477" lon="8.9683571"><ele>393.0</ele><time>2026-04-10T14:45:49.232Z</time></trkpt><trkpt lat="45.7628436" lon="8.9684652"><ele>393.0</ele><time>2026-04-10T14:45:52.228Z</time></trkpt><trkpt lat="45.7628289" lon="8.9685722"><ele>393.0</ele><time>2026-04-10T14:45:55.087Z</time></trkpt><trkpt lat="45.7628332" lon="8.9686805"><ele>393.0</ele><time>2026-04-10T14:45:59.128Z</time></trkpt><trkpt lat="45.7628442" lon="8.9687773"><ele>393.0</ele><time>2026-04-10T14:46:03.212Z</time></trkpt><trkpt lat="45.7628139" lon="8.9688832"><ele>393.0</ele><time>2026-04-10T14:46:07.218Z</time></trkpt><trkpt lat="45.7627868" lon="8.9689784"><ele>393.0</ele><time>2026-04-10T14:46:11.101Z</time></trkpt><trkpt lat="45.7626598" lon="8.9691257"><ele>393.0</ele><time>2026-04-10T14:46:17.132Z</time></trkpt><trkpt lat="45.7626027" lon="8.9692027"><ele>392.3333333333333</ele><time>2026-04-10T14:46:20.221Z</time></trkpt><trkpt lat="45.7625453" lon="8.9692541"><ele>391.66666666666663</ele><time>2026-04-10T14:46:22.482Z</time></trkpt><trkpt lat="45.7624657" lon="8.9693057"><ele>391.0</ele><time>2026-04-10T14:46:25.663Z</time></trkpt><trkpt lat="45.7624046" lon="8.9693743"><ele>390.3333333333333</ele><time>2026-04-10T14:46:28.885Z</time></trkpt><trkpt lat="45.7623368" lon="8.9694108"><ele>389.66666666666663</ele><time>2026-04-10T14:46:33.13Z</time></trkpt><trkpt lat="45.7622648" lon="8.9694382"><ele>389.0</ele><time>2026-04-10T14:46:38.143Z</time></trkpt><trkpt lat="45.7621311" lon="8.9693751"><ele>388.99999999999994</ele><time>2026-04-10T14:46:51.886Z</time></trkpt><trkpt lat="45.7620669" lon="8.9693497"><ele>389.0</ele><time>2026-04-10T14:46:55.104Z</time></trkpt><trkpt lat="45.7619927" lon="8.9693404"><ele>389.0</ele><time>2026-04-10T14:47:01.625Z</time></trkpt><trkpt lat="45.7619282" lon="8.9693477"><ele>389.0</ele><time>2026-04-10T14:47:07.129Z</time></trkpt><trkpt lat="45.7617745" lon="8.9693963"><ele>388.99999999999994</ele><time>2026-04-10T14:47:13.2Z</time></trkpt><trkpt lat="45.7617071" lon="8.9694184"><ele>389.0</ele><time>2026-04-10T14:47:16.124Z</time></trkpt><trkpt lat="45.7616431" lon="8.969432"><ele>388.16666666666663</ele><time>2026-04-10T14:47:19.158Z</time></trkpt><trkpt lat="45.7615742" lon="8.969441"><ele>387.3333333333333</ele><time>2026-04-10T14:47:22.224Z</time></trkpt><trkpt lat="45.7615012" lon="8.9694426"><ele>386.5</ele><time>2026-04-10T14:47:25.283Z</time></trkpt><trkpt lat="45.7614286" lon="8.9694652"><ele>385.66666666666663</ele><time>2026-04-10T14:47:29.163Z</time></trkpt><trkpt lat="45.7613514" lon="8.969512"><ele>384.8333333333333</ele><time>2026-04-10T14:47:34.168Z</time></trkpt><trkpt lat="45.7612851" lon="8.9695582"><ele>384.0</ele><time>2026-04-10T14:47:38.183Z</time></trkpt><trkpt lat="45.7612124" lon="8.9695907"><ele>384.0</ele><time>2026-04-10T14:47:42.13Z</time></trkpt><trkpt lat="45.7611511" lon="8.9696235"><ele>384.0</ele><time>2026-04-10T14:47:45.254Z</time></trkpt><trkpt lat="45.7610767" lon="8.9696735"><ele>384.0</ele><time>2026-04-10T14:47:49.503Z</time></trkpt><trkpt lat="45.7610001" lon="8.9697284"><ele>384.0</ele><time>2026-04-10T14:47:52.764Z</time></trkpt><trkpt lat="45.7609104" lon="8.9697389"><ele>384.0</ele><time>2026-04-10T14:47:56.003Z</time></trkpt><trkpt lat="45.7608315" lon="8.9697441"><ele>384.0</ele><time>2026-04-10T14:47:59.144Z</time></trkpt><trkpt lat="45.7607475" lon="8.9697532"><ele>383.85714285714283</ele><time>2026-04-10T14:48:03.155Z</time></trkpt><trkpt lat="45.7606788" lon="8.9697744"><ele>383.7142857142857</ele><time>2026-04-10T14:48:07.034Z</time></trkpt><trkpt lat="45.7606049" lon="8.9697901"><ele>383.57142857142856</ele><time>2026-04-10T14:48:11.225Z</time></trkpt><trkpt lat="45.7605415" lon="8.9697829"><ele>383.42857142857144</ele><time>2026-04-10T14:48:14.153Z</time></trkpt><trkpt lat="45.7604657" lon="8.9697847"><ele>383.2857142857143</ele><time>2026-04-10T14:48:17.133Z</time></trkpt><trkpt lat="45.7604008" lon="8.9697884"><ele>383.1428571428571</ele><time>2026-04-10T14:48:20.065Z</time></trkpt><trkpt lat="45.7603113" lon="8.969781"><ele>383.0</ele><time>2026-04-10T14:48:23.13Z</time></trkpt><trkpt lat="45.7602424" lon="8.9697858"><ele>382.5</ele><time>2026-04-10T14:48:26.183Z</time></trkpt><trkpt lat="45.7601613" lon="8.9698119"><ele>382.0</ele><time>2026-04-10T14:48:30.153Z</time></trkpt><trkpt lat="45.7600911" lon="8.9698428"><ele>381.5</ele><time>2026-04-10T14:48:33.172Z</time></trkpt><trkpt lat="45.7600302" lon="8.9698733"><ele>381.0</ele><time>2026-04-10T14:48:36.054Z</time></trkpt><trkpt lat="45.7599601" lon="8.9698915"><ele>380.5</ele><time>2026-04-10T14:48:39.195Z</time></trkpt><trkpt lat="45.7598668" lon="8.9699643"><ele>380.0</ele><time>2026-04-10T14:48:42.129Z</time></trkpt><trkpt lat="45.7597878" lon="8.9700219"><ele>378.83333333333337</ele><time>2026-04-10T14:48:44.049Z</time></trkpt><trkpt lat="45.7597243" lon="8.9700532"><ele>377.6666666666667</ele><time>2026-04-10T14:48:46.245Z</time></trkpt><trkpt lat="45.7596534" lon="8.9700682"><ele>376.5</ele><time>2026-04-10T14:48:49.212Z</time></trkpt><trkpt lat="45.7595826" lon="8.9700637"><ele>375.3333333333333</ele><time>2026-04-10T14:48:52.123Z</time></trkpt><trkpt lat="45.7595028" lon="8.9701634"><ele>374.16666666666663</ele><time>2026-04-10T14:48:54.024Z</time></trkpt><trkpt lat="45.7594453" lon="8.9702309"><ele>373.0</ele><time>2026-04-10T14:48:55.951Z</time></trkpt><trkpt lat="45.759361" lon="8.9702406"><ele>373.0</ele><time>2026-04-10T14:48:59.125Z</time></trkpt><trkpt lat="45.7593683" lon="8.9701332"><ele>373.0</ele><time>2026-04-10T14:49:09.148Z</time></trkpt><trkpt lat="45.7593221" lon="8.9700662"><ele>373.0</ele><time>2026-04-10T14:49:16.138Z</time></trkpt><trkpt lat="45.7593271" lon="8.9699674"><ele>373.0</ele><time>2026-04-10T14:49:21.383Z</time></trkpt><trkpt lat="45.7593359" lon="8.9698531"><ele>373.0</ele><time>2026-04-10T14:49:26.963Z</time></trkpt><trkpt lat="45.7593341" lon="8.9697594"><ele>373.0</ele><time>2026-04-10T14:49:32.085Z</time></trkpt><trkpt lat="45.7592989" lon="8.9696809"><ele>373.0</ele><time>2026-04-10T14:49:37.203Z</time></trkpt><trkpt lat="45.7593431" lon="8.9695957"><ele>374.0</ele><time>2026-04-10T14:49:43.177Z</time></trkpt><trkpt lat="45.7593959" lon="8.9695254"><ele>375.0</ele><time>2026-04-10T14:49:50.164Z</time></trkpt><trkpt lat="45.7594695" lon="8.9695393"><ele>376.0</ele><time>2026-04-10T14:49:52.234Z</time></trkpt><trkpt lat="45.7595384" lon="8.969525"><ele>377.0</ele><time>2026-04-10T14:49:55.129Z</time></trkpt><trkpt lat="45.7596043" lon="8.9695148"><ele>378.0</ele><time>2026-04-10T14:49:59.137Z</time></trkpt><trkpt lat="45.7596692" lon="8.9694656"><ele>379.0</ele><time>2026-04-10T14:50:05.103Z</time></trkpt><trkpt lat="45.7597367" lon="8.9694128"><ele>380.0</ele><time>2026-04-10T14:50:11.157Z</time></trkpt><trkpt lat="45.7597853" lon="8.9693285"><ele>380.0</ele><time>2026-04-10T14:50:16.172Z</time></trkpt><trkpt lat="45.7598263" lon="8.9692334"><ele>380.0</ele><time>2026-04-10T14:50:20.239Z</time></trkpt><trkpt lat="45.759856" lon="8.9691405"><ele>380.0</ele><time>2026-04-10T14:50:26.162Z</time></trkpt><trkpt lat="45.7598897" lon="8.9690486"><ele>380.0</ele><time>2026-04-10T14:50:34.132Z</time></trkpt><trkpt lat="45.7598831" lon="8.9689507"><ele>380.0</ele><time>2026-04-10T14:50:37.262Z</time></trkpt><trkpt lat="45.7598694" lon="8.9688467"><ele>380.0</ele><time>2026-04-10T14:50:41.149Z</time></trkpt><trkpt lat="45.7598383" lon="8.9687473"><ele>380.0</ele><time>2026-04-10T14:50:44.128Z</time></trkpt><trkpt lat="45.7598077" lon="8.9686337"><ele>382.0</ele><time>2026-04-10T14:50:47.205Z</time></trkpt><trkpt lat="45.7597807" lon="8.968532"><ele>382.0</ele><time>2026-04-10T14:50:50.201Z</time></trkpt><trkpt lat="45.7597275" lon="8.9684756"><ele>382.0</ele><time>2026-04-10T14:50:53.226Z</time></trkpt><trkpt lat="45.7596655" lon="8.9684065"><ele>382.0</ele><time>2026-04-10T14:50:58.13Z</time></trkpt><trkpt lat="45.7596231" lon="8.9683343"><ele>385.0</ele><time>2026-04-10T14:51:02.129Z</time></trkpt><trkpt lat="45.75959" lon="8.9682478"><ele>385.0</ele><time>2026-04-10T14:51:09.13Z</time></trkpt><trkpt lat="45.7595418" lon="8.9681864"><ele>385.0</ele><time>2026-04-10T14:51:20.219Z</time></trkpt></trkseg></trk></gpx>